createdAt,value
2023-04-01T00:01:52.480Z,2.18
2023-04-01T00:06:55.141Z,2.12
2023-04-01T00:11:57.755Z,2.08
2023-04-01T00:17:00.431Z,2.10
2023-04-01T00:22:03.217Z,2.00
2023-04-01T00:27:06.218Z,2.09
2023-04-01T00:32:09.080Z,1.96
2023-04-01T00:37:12.475Z,2.03
2023-04-01T00:42:15.289Z,2.00
2023-04-01T00:47:18.565Z,2.00
2023-04-01T00:52:26.512Z,1.99
2023-04-01T00:57:37.727Z,1.97
2023-04-01T01:02:44.151Z,1.95
2023-04-01T01:08:13.598Z,1.99
2023-04-01T01:13:27.671Z,2.02
2023-04-01T01:18:53.225Z,2.07
2023-04-01T01:24:23.610Z,2.09
2023-04-01T01:30:05.008Z,2.13
2023-04-01T01:35:32.324Z,2.13
2023-04-01T01:40:39.066Z,2.09
2023-04-01T01:45:49.308Z,2.12
2023-04-01T01:50:53.014Z,2.00
2023-04-01T01:55:56.385Z,2.15
2023-04-01T02:01:05.968Z,2.15
2023-04-01T02:06:17.062Z,2.12
2023-04-01T02:11:27.558Z,2.18
2023-04-01T02:16:36.480Z,2.07
2023-04-01T02:21:41.661Z,2.08
2023-04-01T02:26:46.810Z,2.11
2023-04-01T02:31:51.723Z,2.12
2023-04-01T02:36:56.520Z,2.13
2023-04-01T02:41:59.297Z,2.15
2023-04-01T02:47:02.089Z,2.21
2023-04-01T02:52:04.990Z,2.14
2023-04-01T02:57:07.892Z,2.08
2023-04-01T03:02:10.797Z,2.14
2023-04-01T03:07:14.222Z,2.10
2023-04-01T03:12:16.976Z,2.14
2023-04-01T03:17:26.129Z,2.12
2023-04-01T03:22:29.350Z,2.05
2023-04-01T03:27:31.981Z,2.07
2023-04-01T03:32:34.750Z,2.04
2023-04-01T03:37:37.970Z,2.09
2023-04-01T03:42:40.834Z,2.04
2023-04-01T03:47:43.838Z,2.14
2023-04-01T03:52:46.692Z,2.21
2023-04-01T03:57:49.451Z,2.24
2023-04-01T04:02:56.097Z,2.35
2023-04-01T04:08:04.792Z,2.37
2023-04-01T04:13:08.422Z,2.40
2023-04-01T04:18:15.744Z,2.46
2023-04-01T04:23:19.383Z,2.49
2023-04-01T04:28:22.155Z,2.49
2023-04-01T04:33:26.645Z,2.74
2023-04-01T04:38:30.174Z,2.76
2023-04-01T04:43:32.967Z,2.97
2023-04-01T04:48:36.638Z,3.16
2023-04-01T04:53:39.233Z,3.37
2023-04-01T04:58:41.871Z,3.19
2023-04-01T05:03:50.930Z,3.41
2023-04-01T05:08:53.629Z,3.52
2023-04-01T05:13:56.563Z,3.69
2023-04-01T05:18:59.334Z,3.82
2023-04-01T05:24:02.152Z,3.82
2023-04-01T05:29:07.605Z,3.74
2023-04-01T05:34:10.324Z,3.89
2023-04-01T05:39:12.930Z,3.79
2023-04-01T05:44:16.387Z,3.91
2023-04-01T05:49:18.988Z,4.18
2023-04-01T05:54:22.012Z,4.61
2023-04-01T05:59:24.767Z,5.18
2023-04-01T06:04:33.963Z,5.36
2023-04-01T06:09:37.043Z,5.18
2023-04-01T06:15:04.963Z,5.47
2023-04-01T06:20:17.527Z,5.13
2023-04-01T06:25:39.061Z,5.17
2023-04-01T06:30:44.973Z,5.78
2023-04-01T06:36:13.278Z,5.95
2023-04-01T06:41:46.269Z,6.51
2023-04-01T06:47:24.037Z,6.86
2023-04-01T06:53:24.937Z,6.74
2023-04-01T06:58:57.500Z,7.17
2023-04-01T07:04:06.426Z,6.93
2023-04-01T07:09:17.475Z,7.45
2023-04-01T07:14:48.956Z,7.44
2023-04-01T07:20:03.109Z,7.90
2023-04-01T07:25:14.802Z,8.15
2023-04-01T07:30:23.151Z,7.91
2023-04-01T07:36:03.058Z,8.26
2023-04-01T07:41:31.700Z,8.10
2023-04-01T07:46:59.123Z,8.00
2023-04-01T07:52:10.380Z,7.95
2023-04-01T07:57:56.597Z,7.92
2023-04-01T08:03:18.465Z,8.27
2023-04-01T08:08:47.557Z,8.32
2023-04-01T08:14:14.216Z,8.33
2023-04-01T08:19:58.019Z,8.41
2023-04-01T08:25:08.900Z,8.47
2023-04-01T08:30:26.023Z,8.56
2023-04-01T08:35:39.991Z,8.40
2023-04-01T08:41:02.156Z,8.44
2023-04-01T08:46:51.748Z,8.72
2023-04-01T08:51:54.361Z,8.85
2023-04-01T08:57:18.835Z,8.58
2023-04-01T09:02:47.510Z,8.37
2023-04-01T09:08:26.892Z,8.50
2023-04-01T09:14:02.804Z,8.60
2023-04-01T09:19:44.453Z,8.68
2023-04-01T09:25:08.327Z,8.98
2023-04-01T09:30:34.122Z,9.39
2023-04-01T09:35:43.982Z,9.36
2023-04-01T09:41:03.080Z,9.29
2023-04-01T09:46:27.868Z,9.23
2023-04-01T09:51:43.189Z,9.19
2023-04-01T09:56:59.238Z,9.32
2023-04-01T10:02:20.590Z,9.85
2023-04-01T10:08:02.242Z,10.19
2023-04-01T10:13:17.152Z,10.19
2023-04-01T10:19:04.946Z,9.81
2023-04-01T10:24:40.387Z,10.41
2023-04-01T10:30:30.632Z,9.99
2023-04-01T10:35:37.108Z,9.56
2023-04-01T10:41:07.935Z,10.02
2023-04-01T10:46:56.662Z,10.03
2023-04-01T10:52:17.736Z,9.97
2023-04-01T10:57:57.032Z,9.86
2023-04-01T11:04:00.265Z,9.95
2023-04-01T11:09:26.749Z,10.07
2023-04-01T11:14:58.173Z,10.42
2023-04-01T11:20:38.750Z,10.85
2023-04-01T11:25:44.553Z,10.87
2023-04-01T11:31:36.372Z,10.95
2023-04-01T11:37:10.661Z,10.78
2023-04-01T11:42:45.043Z,10.56
2023-04-01T11:48:27.204Z,10.78
2023-04-01T11:53:54.204Z,10.91
2023-04-01T11:59:24.661Z,10.97
2023-04-01T12:04:59.192Z,11.00
2023-04-01T12:10:26.539Z,10.87
2023-04-01T12:15:49.737Z,10.71
2023-04-01T12:21:01.787Z,10.94
2023-04-01T12:26:25.222Z,10.73
2023-04-01T12:32:05.665Z,10.63
2023-04-01T12:37:17.626Z,11.01
2023-04-01T12:42:20.132Z,10.64
2023-04-01T12:47:25.859Z,10.75
2023-04-01T12:52:50.602Z,10.81
2023-04-01T12:57:59.000Z,10.82
2023-04-01T13:03:20.994Z,10.12
2023-04-01T13:08:23.508Z,9.87
2023-04-01T13:13:35.772Z,9.64
2023-04-01T13:19:04.921Z,9.40
2023-04-01T13:24:25.689Z,9.17
2023-04-01T13:29:44.530Z,9.20
2023-04-01T13:35:21.359Z,9.11
2023-04-01T13:41:02.223Z,8.64
2023-04-01T13:46:32.540Z,8.65
2023-04-01T13:51:53.406Z,8.54
2023-04-01T13:57:22.114Z,8.44
2023-04-01T14:02:44.494Z,8.50
2023-04-01T14:07:47.486Z,8.50
2023-04-01T14:13:09.023Z,8.19
2023-04-01T14:18:38.933Z,8.14
2023-04-01T14:24:15.017Z,8.15
2023-04-01T14:29:43.894Z,8.11
2023-04-01T14:35:24.241Z,7.86
2023-04-01T14:40:58.838Z,7.75
2023-04-01T14:46:36.000Z,7.66
2023-04-01T14:51:40.651Z,7.58
2023-04-01T14:57:13.526Z,7.40
2023-04-01T15:02:34.366Z,7.41
2023-04-01T15:07:56.015Z,7.47
2023-04-01T15:13:31.303Z,7.27
2023-04-01T15:18:40.508Z,7.22
2023-04-01T15:23:51.723Z,7.13
2023-04-01T15:29:31.769Z,7.15
2023-04-01T15:35:12.177Z,7.07
2023-04-01T15:40:20.774Z,7.02
2023-04-01T15:45:43.180Z,7.05
2023-04-01T15:50:57.065Z,6.88
2023-04-01T15:56:42.258Z,6.85
2023-04-01T16:02:12.263Z,6.88
2023-04-01T16:07:31.074Z,6.74
2023-04-01T16:12:36.902Z,6.65
2023-04-01T16:18:23.303Z,6.57
2023-04-01T16:23:44.886Z,6.63
2023-04-01T16:29:28.980Z,6.60
2023-04-01T16:34:42.627Z,6.57
2023-04-01T16:40:12.987Z,6.51
2023-04-01T16:45:45.396Z,6.57
2023-04-01T16:51:00.560Z,6.50
2023-04-01T16:56:03.702Z,6.53
2023-04-01T17:01:17.468Z,6.60
2023-04-01T17:06:49.448Z,6.45
2023-04-01T17:11:58.226Z,6.39
2023-04-01T17:17:16.103Z,6.22
2023-04-01T17:22:45.616Z,6.12
2023-04-01T17:27:54.135Z,6.28
2023-04-01T17:33:24.723Z,6.25
2023-04-01T17:39:01.597Z,6.30
2023-04-01T17:44:16.629Z,6.25
2023-04-01T17:49:49.402Z,6.20
2023-04-01T17:55:19.033Z,6.15
2023-04-01T18:00:38.374Z,6.12
2023-04-01T18:06:04.031Z,6.09
2023-04-01T18:11:43.676Z,6.04
2023-04-01T18:17:27.807Z,6.06
2023-04-01T18:22:39.914Z,5.98
2023-04-01T18:28:01.066Z,5.98
2023-04-01T18:33:03.424Z,5.89
2023-04-01T18:38:11.654Z,5.93
2023-04-01T18:43:20.401Z,6.01
2023-04-01T18:48:40.135Z,5.94
2023-04-01T18:53:49.354Z,6.05
2023-04-01T18:58:51.699Z,5.99
2023-04-01T19:04:10.025Z,6.06
2023-04-01T19:09:31.041Z,5.82
2023-04-01T19:14:36.499Z,5.99
2023-04-01T19:19:53.659Z,5.88
2023-04-01T19:24:59.088Z,5.97
2023-04-01T19:30:04.528Z,6.01
2023-04-01T19:35:19.524Z,6.01
2023-04-01T19:40:24.769Z,5.94
2023-04-01T19:45:33.419Z,6.01
2023-04-01T19:50:41.360Z,5.90
2023-04-01T19:55:49.417Z,6.07
2023-04-01T20:00:58.396Z,6.06
2023-04-01T20:06:31.202Z,6.10
2023-04-01T20:11:51.849Z,6.14
2023-04-01T20:17:02.424Z,6.19
2023-04-01T20:22:11.261Z,6.17
2023-04-01T20:27:13.602Z,6.16
2023-04-01T20:32:45.219Z,6.23
2023-04-01T20:37:55.744Z,6.12
2023-04-01T20:43:01.224Z,6.19
2023-04-01T20:48:22.211Z,6.18
2023-04-01T20:53:33.317Z,6.18
2023-04-01T20:58:38.708Z,6.11
2023-04-01T21:03:55.060Z,6.13
2023-04-01T21:09:16.421Z,6.16
2023-04-01T21:14:37.797Z,6.13
2023-04-01T21:19:43.196Z,6.06
2023-04-01T21:24:45.696Z,6.17
2023-04-01T21:29:54.011Z,6.19
2023-04-01T21:34:59.518Z,6.30
2023-04-01T21:40:20.372Z,6.29
2023-04-01T21:45:22.802Z,6.28
2023-04-01T21:50:25.486Z,6.29
2023-04-01T21:55:34.140Z,6.29
2023-04-01T22:00:43.987Z,6.17
2023-04-01T22:06:04.494Z,6.28
2023-04-01T22:11:10.026Z,6.36
2023-04-01T22:16:30.833Z,6.43
2023-04-01T22:21:39.363Z,6.35
2023-04-01T22:26:47.609Z,6.37
2023-04-01T22:32:09.488Z,6.40
2023-04-01T22:37:11.829Z,6.40
2023-04-01T22:42:33.244Z,6.44
2023-04-01T22:47:40.346Z,6.41
2023-04-01T22:52:48.121Z,6.23
2023-04-01T22:57:53.484Z,6.30
2023-04-01T23:03:14.345Z,6.17
2023-04-01T23:08:22.691Z,6.15
2023-04-01T23:13:42.781Z,6.24
2023-04-01T23:18:51.141Z,6.27
2023-04-01T23:23:53.503Z,6.18
2023-04-01T23:28:56.896Z,6.19
2023-04-01T23:34:14.529Z,6.18
2023-04-01T23:39:20.058Z,6.21
2023-04-01T23:44:22.711Z,6.18
2023-04-01T23:49:29.810Z,6.15
2023-04-01T23:54:39.889Z,6.19
2023-04-01T23:59:42.582Z,6.18
